Time;durP1;ratioP1;P1;durP2;ratioP2;P2;SDS_P1;SDS_P2;PMS_P1;PMS_P2;Temp;Humidity;BMP_temperature;BMP_pressure;BME280_temperature;BME280_humidity;BME280_pressure;Samples;Min_cycle;Max_cycle;Signal;HPM_P1;HPM_P2
2022/09/27 00:01:13;;;;;;;12.82;2.10;;;9.20;99.90;;;;;;6183883;23;20044;-89
2022/09/27 00:03:54;;;;;;;12.88;2.40;;;10.00;99.90;;;;;;6195511;23;20021;-90
2022/09/27 00:13:54;;;;;;;14.13;2.70;;;9.60;99.90;;;;;;6184177;23;20016;-90
2022/09/27 00:16:29;;;;;;;12.38;2.58;;;10.80;99.90;;;;;;6181958;23;20106;-89
2022/09/27 00:19:12;;;;;;;13.55;3.47;;;9.60;99.90;;;;;;6184700;23;20020;-90
2022/09/27 00:22:00;;;;;;;11.85;2.85;;;9.00;99.90;;;;;;6186481;23;20071;-90
2022/09/27 00:24:44;;;;;;;11.65;2.40;;;8.80;99.90;;;;;;6186305;23;20096;-90
2022/09/27 00:27:26;;;;;;;15.90;2.80;;;9.40;99.90;;;;;;6184313;23;20009;-89
2022/09/27 00:29:53;;;;;;;13.98;2.45;;;9.40;99.90;;;;;;6185937;23;20021;-90
2022/09/27 00:32:22;;;;;;;14.25;2.60;;;9.30;99.90;;;;;;6186452;23;20053;-90
2022/09/27 00:34:47;;;;;;;17.77;2.42;;;9.30;99.90;;;;;;6184497;23;20013;-90
2022/09/27 00:37:13;;;;;;;12.75;2.58;;;10.30;99.90;;;;;;6183486;23;20013;-89
2022/09/27 00:39:39;;;;;;;11.07;2.30;;;9.30;99.90;;;;;;6186522;23;20021;-88
2022/09/27 00:42:05;;;;;;;12.30;2.30;;;9.10;99.90;;;;;;6196473;23;20400;-90
2022/09/27 00:44:37;;;;;;;14.68;2.22;;;9.30;99.90;;;;;;6184077;23;20024;-89
2022/09/27 00:47:27;;;;;;;14.20;2.78;;;10.90;99.90;;;;;;6185193;23;20028;-89
2022/09/27 00:50:21;;;;;;;13.73;2.40;;;9.30;99.90;;;;;;6185179;23;20009;-90
2022/09/27 00:53:11;;;;;;;12.63;2.60;;;8.60;99.90;;;;;;6186711;23;20017;-90
2022/09/27 00:55:45;;;;;;;11.93;2.38;;;10.90;99.90;;;;;;6217913;23;20017;-89
2022/09/27 00:58:56;;;;;;;10.43;2.55;;;9.10;99.90;;;;;;6215239;23;20028;-90
2022/09/27 01:01:21;;;;;;;10.15;2.00;;;10.10;99.90;;;;;;6216220;23;20425;-90
2022/09/27 01:04:08;;;;;;;11.82;2.47;;;8.90;99.90;;;;;;6189603;23;20503;-89
2022/09/27 01:06:43;;;;;;;14.00;2.00;;;8.90;99.90;;;;;;6188199;23;20052;-89
2022/09/27 01:09:23;;;;;;;11.80;2.10;;;10.00;99.90;;;;;;6188910;23;20021;-89
2022/09/27 01:12:13;;;;;;;9.60;1.80;;;8.40;99.90;;;;;;6188300;23;20012;-89
2022/09/27 01:15:07;;;;;;;9.68;2.22;;;9.80;99.90;;;;;;6216525;23;20020;-90
2022/09/27 01:17:38;;;;;;;10.30;1.88;;;9.00;99.90;;;;;;6233125;23;20039;-90
2022/09/27 01:20:41;;;;;;;6.70;1.50;;;8.90;99.90;;;;;;6189496;23;20519;-89
2022/09/27 01:43:39;;;;;;;9.93;1.65;;;8.10;99.90;;;;;;6215247;23;20024;-89
2022/09/27 01:46:36;;;;;;;7.68;1.58;;;8.80;99.90;;;;;;6211891;23;20021;-88
2022/09/27 01:49:23;;;;;;;6.95;1.55;;;10.50;99.90;;;;;;6216048;23;20019;-89
2022/09/27 01:52:03;;;;;;;8.73;1.52;;;10.30;99.90;;;;;;6216004;23;20017;-89
2022/09/27 01:54:41;;;;;;;13.98;2.03;;;8.80;99.90;;;;;;6231115;23;20005;-89
2022/09/27 01:57:22;;;;;;;7.85;1.50;;;9.00;99.90;;;;;;6189581;23;20016;-89
2022/09/27 02:00:01;;;;;;;11.38;1.77;;;9.30;99.90;;;;;;6217905;23;20076;-89
2022/09/27 02:02:51;;;;;;;7.97;1.58;;;8.70;99.90;;;;;;6214723;23;20019;-89
2022/09/27 02:05:19;;;;;;;8.73;1.85;;;8.70;99.90;;;;;;6214770;23;20326;-89
2022/09/27 02:08:16;;;;;;;5.90;1.50;;;8.60;99.90;;;;;;6214296;23;20511;-89
2022/09/27 02:10:46;;;;;;;8.60;1.83;;;8.00;99.90;;;;;;6189221;23;20009;-90
2022/09/27 02:13:23;;;;;;;11.00;1.60;;;9.70;99.90;;;;;;6188823;23;20376;-89
2022/09/27 02:16:19;;;;;;;5.35;1.48;;;8.70;99.90;;;;;;6188211;23;20009;-90
2022/09/27 02:19:09;;;;;;;8.00;1.40;;;8.70;99.90;;;;;;6188630;23;20025;-89
2022/09/27 02:22:02;;;;;;;8.45;1.70;;;8.70;99.90;;;;;;6215767;23;20452;-91
2022/09/27 02:24:45;;;;;;;9.18;1.65;;;8.70;99.90;;;;;;6215432;23;20018;-90
2022/09/27 02:27:27;;;;;;;6.43;1.48;;;8.70;99.90;;;;;;6218253;23;20017;-90
2022/09/27 02:30:18;;;;;;;7.25;1.42;;;8.70;99.90;;;;;;6199056;22;20027;-89
2022/09/27 02:33:02;;;;;;;7.60;1.40;;;8.70;99.90;;;;;;6198973;23;20012;-90
2022/09/27 02:35:32;;;;;;;8.40;1.70;;;8.70;99.90;;;;;;6190724;23;20457;-90
2022/09/27 02:37:59;;;;;;;7.78;1.45;;;8.80;99.90;;;;;;6188301;23;20044;-91
2022/09/27 02:48:19;;;;;;;7.47;1.50;;;8.80;99.90;;;;;;6188700;23;20071;-90
2022/09/27 02:51:20;;;;;;;6.57;1.40;;;8.30;99.90;;;;;;6214772;23;20020;-90
2022/09/27 02:53:52;;;;;;;5.20;1.53;;;10.40;99.90;;;;;;6188539;23;20013;-90
2022/09/27 02:56:54;;;;;;;9.67;1.60;;;9.80;99.90;;;;;;6212737;23;20332;-90
2022/09/27 02:59:44;;;;;;;7.83;1.60;;;10.10;99.90;;;;;;6187718;23;20017;-90
2022/09/27 03:02:22;;;;;;;7.20;1.40;;;8.70;99.90;;;;;;6191676;23;20070;-92
2022/09/27 03:04:58;;;;;;;7.47;1.37;;;8.70;99.90;;;;;;6198534;23;20020;-90
2022/09/27 03:07:24;;;;;;;8.02;1.33;;;9.40;99.90;;;;;;6216437;23;20021;-90
2022/09/27 03:09:51;;;;;;;3.35;1.17;;;8.70;99.90;;;;;;6215491;23;20012;-90
2022/09/27 03:12:24;;;;;;;8.95;1.50;;;8.60;99.90;;;;;;6185875;23;20105;-89
2022/09/27 03:14:52;;;;;;;4.60;1.48;;;8.60;99.90;;;;;;6187362;23;20096;-90
2022/09/27 03:17:18;;;;;;;4.18;1.10;;;8.60;99.90;;;;;;6187993;23;20021;-89
2022/09/27 03:19:44;;;;;;;11.60;1.75;;;8.60;99.90;;;;;;6187367;23;20073;-90
2022/09/27 03:22:10;;;;;;;7.30;1.58;;;8.60;99.90;;;;;;6187475;23;20066;-89
2022/09/27 03:24:39;;;;;;;6.22;1.40;;;8.50;99.90;;;;;;6215573;23;20099;-90
2022/09/27 03:27:04;;;;;;;7.93;1.37;;;8.50;99.90;;;;;;6188204;23;20048;-90
2022/09/27 03:29:39;;;;;;;11.10;1.80;;;8.50;99.90;;;;;;6214450;23;20059;-90
2022/09/27 03:40:07;;;;;;;6.70;1.45;;;7.80;99.90;;;;;;6184927;23;20017;-90
2022/09/27 03:42:48;;;;;;;6.53;1.45;;;8.50;99.90;;;;;;6163840;23;20021;-89
2022/09/27 03:45:21;;;;;;;6.72;1.35;;;8.40;99.90;;;;;;6157941;23;20025;-90
2022/09/27 03:47:47;;;;;;;6.30;1.52;;;9.80;99.90;;;;;;6183927;23;20044;-90
2022/09/27 03:53:50;;;;;;;5.05;1.33;;;8.30;99.90;;;;;;6183146;23;20019;-89
2022/09/27 03:56:25;;;;;;;7.57;1.40;;;8.00;99.90;;;;;;6158443;23;20028;-89
2022/09/27 03:59:11;;;;;;;9.48;1.90;;;9.90;99.90;;;;;;6157846;23;20067;-90
2022/09/27 04:06:01;;;;;;;9.80;2.63;;;8.20;99.90;;;;;;6185132;23;20051;-90
2022/09/27 04:08:27;;;;;;;8.50;2.00;;;8.30;99.90;;;;;;6183486;23;20104;-89
2022/09/27 04:10:56;;;;;;;5.78;1.45;;;9.00;99.90;;;;;;6184876;23;20044;-90
2022/09/27 04:13:22;;;;;;;10.15;3.53;;;8.20;99.90;;;;;;6184529;23;20017;-90
2022/09/27 04:15:48;;;;;;;5.93;1.63;;;9.40;99.90;;;;;;6157489;23;20446;-90
2022/09/27 04:18:13;;;;;;;8.40;1.73;;;8.10;99.90;;;;;;6162390;23;20104;-90
2022/09/27 04:20:39;;;;;;;8.55;2.38;;;9.10;99.90;;;;;;6184860;23;20381;-90
2022/09/27 04:23:20;;;;;;;5.72;1.70;;;8.10;99.90;;;;;;6184362;23;20048;-90
2022/09/27 04:25:46;;;;;;;7.80;2.83;;;8.20;99.90;;;;;;6158358;23;20052;-90
2022/09/27 04:28:18;;;;;;;9.68;3.05;;;8.00;99.90;;;;;;6184428;23;20017;-90
2022/09/27 04:30:56;;;;;;;8.80;3.33;;;9.70;99.90;;;;;;6157121;23;20024;-89
2022/09/27 04:34:12;;;;;;;10.23;3.67;;;9.50;99.90;;;;;;6156803;23;20017;-90
2022/09/27 04:36:38;;;;;;;8.57;2.33;;;8.60;99.90;;;;;;6159492;23;20339;-90
2022/09/27 04:39:08;;;;;;;8.73;2.35;;;9.50;99.90;;;;;;6216693;23;20012;-90
2022/09/27 04:41:46;;;;;;;9.38;4.68;;;7.20;99.90;;;;;;6188627;23;20437;-89
2022/09/27 04:44:11;;;;;;;9.00;2.65;;;9.60;99.90;;;;;;6213741;23;20023;-90
2022/09/27 04:46:46;;;;;;;8.32;2.25;;;9.20;99.90;;;;;;6214937;23;20013;-90
2022/09/27 04:49:24;;;;;;;9.35;3.40;;;9.60;99.90;;;;;;6214696;23;20091;-90
2022/09/27 04:52:05;;;;;;;9.20;3.28;;;8.10;99.90;;;;;;6189384;23;20445;-90
2022/09/27 04:54:31;;;;;;;9.32;4.53;;;7.40;99.90;;;;;;6223616;23;20017;-89
2022/09/27 04:57:15;;;;;;;19.33;16.10;;;8.50;99.90;;;;;;6198857;22;20019;-91
2022/09/27 05:06:33;;;;;;;18.58;7.35;;;7.90;99.90;;;;;;6250539;22;20456;-89
2022/09/27 05:08:58;;;;;;;20.88;7.80;;;9.70;99.90;;;;;;6245288;23;20095;-90
2022/09/27 05:11:36;;;;;;;16.67;6.63;;;9.90;99.90;;;;;;6246145;23;20017;-90
2022/09/27 05:14:18;;;;;;;6.80;3.15;;;8.90;99.90;;;;;;6244547;23;20024;-90
2022/09/27 05:16:57;;;;;;;11.48;4.88;;;8.20;99.90;;;;;;6244621;23;20020;-91
2022/09/27 05:19:38;;;;;;;7.18;1.95;;;8.10;99.90;;;;;;6243845;23;20341;-89
2022/09/27 05:22:05;;;;;;;9.63;2.60;;;9.50;99.90;;;;;;6244760;23;20017;-90
2022/09/27 05:24:43;;;;;;;8.40;2.38;;;8.10;99.90;;;;;;6244902;23;20016;-90
2022/09/27 05:27:30;;;;;;;7.60;2.70;;;8.10;99.90;;;;;;6245106;23;20020;-90
2022/09/27 05:30:06;;;;;;;13.35;8.35;;;8.10;99.90;;;;;;6258555;23;20019;-90
2022/09/27 05:32:33;;;;;;;13.23;5.75;;;8.20;99.90;;;;;;6244694;23;20019;-90
2022/09/27 05:34:59;;;;;;;11.63;5.93;;;9.80;99.90;;;;;;6245438;23;20452;-89
2022/09/27 05:37:25;;;;;;;5.90;2.60;;;8.10;99.90;;;;;;6246498;22;20019;-90
2022/09/27 05:39:50;;;;;;;4.22;1.33;;;8.10;99.90;;;;;;6244081;23;20429;-90
2022/09/27 05:42:25;;;;;;;7.72;3.72;;;9.50;99.90;;;;;;6246760;23;20432;-90
2022/09/27 05:45:06;;;;;;;9.25;3.30;;;8.10;99.90;;;;;;6244835;23;20035;-89
2022/09/27 05:48:17;;;;;;;7.63;2.15;;;8.10;99.90;;;;;;6245971;22;20017;-90
2022/09/27 05:50:46;;;;;;;7.23;2.60;;;8.30;99.90;;;;;;6174710;23;20016;-90
2022/09/27 05:53:20;;;;;;;9.02;2.00;;;8.70;99.90;;;;;;6243267;23;20058;-91
2022/09/27 05:55:52;;;;;;;5.47;1.40;;;9.40;99.90;;;;;;6244853;23;20035;-90
2022/09/27 05:58:27;;;;;;;7.93;3.50;;;8.00;99.90;;;;;;6244799;23;20016;-90
2022/09/27 06:01:09;;;;;;;10.65;4.57;;;8.50;99.90;;;;;;6243980;23;20123;-90
2022/09/27 06:03:54;;;;;;;5.55;1.50;;;9.90;99.90;;;;;;6245835;23;20523;-91
2022/09/27 06:10:06;;;;;;;5.57;1.80;;;7.70;99.90;;;;;;6277018;22;20024;-86
2022/09/27 06:12:52;;;;;;;7.15;2.10;;;8.30;99.90;;;;;;6276848;22;20051;-85
2022/09/27 06:15:26;;;;;;;7.95;1.90;;;8.40;99.90;;;;;;6222665;22;20012;-85
2022/09/27 06:17:55;;;;;;;5.35;1.83;;;9.00;99.90;;;;;;6277066;22;20016;-86
2022/09/27 06:20:20;;;;;;;7.63;1.80;;;7.60;99.90;;;;;;6249087;22;20015;-87
2022/09/27 06:22:46;;;;;;;6.53;1.83;;;8.40;99.90;;;;;;6248796;22;20162;-85
2022/09/27 06:25:21;;;;;;;6.93;1.75;;;8.00;99.90;;;;;;6249397;22;20509;-86
2022/09/27 06:27:53;;;;;;;5.00;1.40;;;8.30;99.90;;;;;;6249977;22;20099;-85
2022/09/27 06:30:18;;;;;;;6.10;1.50;;;10.10;99.90;;;;;;6275222;22;20016;-86
2022/09/27 06:36:25;;;;;;;5.15;1.35;;;8.00;99.90;;;;;;6268646;22;20031;-86
2022/09/27 06:38:54;;;;;;;5.00;1.45;;;9.80;99.90;;;;;;6276370;22;20024;-85
2022/09/27 06:41:20;;;;;;;7.35;1.55;;;8.40;99.90;;;;;;6249372;22;20067;-84
2022/09/27 06:43:48;;;;;;;7.13;2.10;;;8.40;99.90;;;;;;6248331;22;20015;-84
2022/09/27 06:46:23;;;;;;;7.72;1.70;;;8.10;99.90;;;;;;6249040;22;20015;-84
2022/09/27 06:48:57;;;;;;;4.82;1.60;;;8.50;99.90;;;;;;6249416;22;20016;-84
2022/09/27 06:51:35;;;;;;;5.20;1.58;;;8.00;99.90;;;;;;6247879;22;20389;-84
2022/09/27 06:54:01;;;;;;;5.72;1.60;;;7.80;99.90;;;;;;6275972;22;20571;-84
2022/09/27 07:00:22;;;;;;;6.45;1.67;;;8.00;99.90;;;;;;6275684;22;20382;-84
2022/09/27 07:02:48;;;;;;;5.63;1.80;;;8.40;99.90;;;;;;6249370;22;20012;-84
2022/09/27 07:05:14;;;;;;;5.43;1.50;;;9.70;99.90;;;;;;6274750;22;20495;-84
2022/09/27 07:07:40;;;;;;;4.32;1.40;;;8.40;99.90;;;;;;6248909;22;20054;-84
2022/09/27 07:10:27;;;;;;;6.30;1.58;;;7.90;99.90;;;;;;6248525;22;20041;-84
2022/09/27 07:13:11;;;;;;;6.50;1.90;;;9.70;99.90;;;;;;6248977;22;20081;-85
2022/09/27 07:15:40;;;;;;;11.65;3.65;;;8.60;99.90;;;;;;6276435;22;20128;-87
2022/09/27 07:18:07;;;;;;;24.08;10.10;;;8.80;99.90;;;;;;6247829;22;20016;-85
2022/09/27 07:20:52;;;;;;;6.93;2.22;;;8.60;99.90;;;;;;6276811;22;20022;-85
2022/09/27 07:23:19;;;;;;;58.08;26.65;;;10.10;99.90;;;;;;6275594;22;20015;-84
2022/09/27 07:25:45;;;;;;;22.10;10.95;;;10.00;99.90;;;;;;6274091;22;20019;-85
2022/09/27 07:28:28;;;;;;;29.65;13.73;;;10.50;99.90;;;;;;6275995;22;20482;-85
2022/09/27 07:30:55;;;;;;;10.32;5.00;;;7.60;99.90;;;;;;6233220;22;20336;-85
2022/09/27 07:33:36;;;;;;;7.88;2.53;;;9.20;99.90;;;;;;6213483;23;20430;-85
2022/09/27 07:39:46;;;;;;;5.93;1.52;;;9.50;99.90;;;;;;6213390;23;20079;-86
2022/09/27 07:42:14;;;;;;;7.97;2.35;;;9.50;99.90;;;;;;6212186;23;20012;-85
2022/09/27 07:48:21;;;;;;;9.50;2.38;;;9.80;99.90;;;;;;6213305;23;20018;-85
2022/09/27 07:55:38;;;;;;;8.55;2.40;;;9.40;99.90;;;;;;6244643;23;20372;-88
2022/09/27 07:58:25;;;;;;;6.40;1.98;;;9.30;99.90;;;;;;6127984;23;20022;-85
2022/09/27 08:00:53;;;;;;;9.25;2.97;;;9.90;99.90;;;;;;6125991;23;20068;-84
2022/09/27 08:03:18;;;;;;;6.63;1.95;;;10.00;99.90;;;;;;6153121;23;20453;-85
2022/09/27 08:05:46;;;;;;;8.20;2.90;;;10.40;99.90;;;;;;6128798;23;20108;-84
2022/09/27 08:08:24;;;;;;;3.28;1.55;;;9.90;99.90;;;;;;6162359;22;20012;-85
2022/09/27 08:11:30;;;;;;;8.82;2.17;;;10.80;99.90;;;;;;6247524;22;20028;-85
2022/09/27 08:14:09;;;;;;;6.25;1.42;;;9.80;99.90;;;;;;6274838;22;20016;-85
2022/09/27 08:16:47;;;;;;;10.35;4.68;;;9.60;99.90;;;;;;6248668;22;20047;-85
2022/09/27 08:19:13;;;;;;;7.00;2.10;;;11.20;99.90;;;;;;6248302;22;20502;-84
2022/09/27 08:22:07;;;;;;;7.90;3.10;;;10.50;99.90;;;;;;6274581;22;20023;-86
2022/09/27 08:24:35;;;;;;;8.15;2.33;;;9.50;99.90;;;;;;6275613;22;20448;-82
2022/09/27 08:27:14;;;;;;;7.00;1.92;;;8.90;99.90;;;;;;6249749;22;20090;-84
2022/09/27 08:29:40;;;;;;;5.97;2.15;;;10.90;99.90;;;;;;6247220;22;20051;-84
2022/09/27 08:32:33;;;;;;;5.68;1.50;;;10.20;99.90;;;;;;6271052;22;20015;-83
2022/09/27 08:35:14;;;;;;;7.57;1.80;;;10.50;99.90;;;;;;6243152;22;20020;-84
2022/09/27 08:37:39;;;;;;;3.42;1.30;;;9.70;99.90;;;;;;6247987;22;20259;-85
2022/09/27 08:40:06;;;;;;;3.65;1.42;;;11.40;99.90;;;;;;6226114;23;20024;-85
2022/09/27 08:42:45;;;;;;;4.28;1.40;;;9.90;99.90;;;;;;6214912;23;20012;-84
2022/09/27 08:45:27;;;;;;;5.15;1.35;;;9.90;99.90;;;;;;6218100;23;20525;-84
2022/09/27 08:47:59;;;;;;;7.82;1.25;;;10.10;99.90;;;;;;6219572;23;20448;-85
2022/09/27 08:50:29;;;;;;;9.50;2.50;;;11.00;99.90;;;;;;6217738;23;20016;-84
2022/09/27 08:53:20;;;;;;;5.20;1.38;;;11.00;99.90;;;;;;6245811;23;20022;-85
2022/09/27 08:56:02;;;;;;;3.83;1.10;;;10.60;99.90;;;;;;6218356;23;20012;-84
2022/09/27 08:58:48;;;;;;;4.43;1.30;;;10.90;99.90;;;;;;6219090;23;20044;-84
2022/09/27 09:01:15;;;;;;;3.67;1.02;;;11.30;99.90;;;;;;6246557;23;20036;-85
2022/09/27 09:07:15;;;;;;;8.35;1.10;;;11.50;99.90;;;;;;6251838;22;20023;-84
2022/09/27 09:12:45;;;;;;;4.65;1.00;;;11.90;99.90;;;;;;6277270;22;20020;-84
2022/09/27 09:13:33;;;;;;;5.30;1.10;;;11.80;99.90;;;;;;6100028;23;20108;-85
2022/09/27 09:16:28;;;;;;;5.55;1.08;;;11.90;99.90;;;;;;6277675;22;20020;-84
2022/09/27 09:19:21;;;;;;;4.10;1.00;;;11.90;99.90;;;;;;6276245;22;20328;-85
2022/09/27 09:21:59;;;;;;;6.10;1.20;;;12.80;99.90;;;;;;6249745;22;20019;-86
2022/09/27 09:24:54;;;;;;;3.28;1.02;;;12.60;99.90;;;;;;6276361;22;20026;-85
2022/09/27 09:28:05;;;;;;;5.47;1.05;;;12.30;99.90;;;;;;6249413;22;20340;-86
2022/09/27 09:30:59;;;;;;;3.78;1.10;;;12.20;99.90;;;;;;6217930;22;20019;-85
2022/09/27 09:33:30;;;;;;;3.40;1.45;;;12.10;99.90;;;;;;6274352;22;20058;-83
2022/09/27 09:36:02;;;;;;;3.08;1.02;;;12.10;99.90;;;;;;6276178;22;20069;-84
2022/09/27 09:38:42;;;;;;;1.35;0.90;;;13.30;99.90;;;;;;6247951;22;20070;-84
2022/09/27 09:41:08;;;;;;;3.05;1.05;;;12.10;99.90;;;;;;6274928;22;20016;-83
2022/09/27 09:43:49;;;;;;;2.83;0.90;;;12.20;99.90;;;;;;6275814;22;20030;-83
2022/09/27 09:46:17;;;;;;;2.58;0.90;;;12.40;99.90;;;;;;6247018;22;20069;-83
2022/09/27 09:48:48;;;;;;;1.27;0.70;;;12.40;99.90;;;;;;6275738;22;20015;-83
2022/09/27 09:51:23;;;;;;;3.45;1.00;;;13.40;99.90;;;;;;6248689;22;20384;-83
2022/09/27 09:54:04;;;;;;;2.38;1.00;;;12.80;99.90;;;;;;6248109;22;20016;-83
2022/09/27 09:56:37;;;;;;;2.60;0.90;;;12.90;99.90;;;;;;6249125;22;20023;-83
2022/09/27 09:59:27;;;;;;;5.95;1.08;;;13.00;99.90;;;;;;6275356;22;20023;-83
2022/09/27 10:01:57;;;;;;;2.10;0.93;;;12.80;99.90;;;;;;6249499;22;20073;-83
2022/09/27 10:04:27;;;;;;;3.25;1.10;;;12.90;99.90;;;;;;6247131;22;20012;-84
2022/09/27 10:07:00;;;;;;;4.13;1.20;;;13.40;99.90;;;;;;6248158;22;20012;-83
2022/09/27 10:09:27;;;;;;;3.22;1.08;;;13.60;99.90;;;;;;6248860;22;20081;-84
2022/09/27 10:11:56;;;;;;;1.75;0.80;;;12.20;99.90;;;;;;6277186;22;20016;-84
2022/09/27 10:14:26;;;;;;;4.18;1.30;;;11.90;99.90;;;;;;6275466;22;20378;-85
2022/09/27 10:16:58;;;;;;;3.05;1.15;;;13.10;99.90;;;;;;6248322;22;20015;-85
2022/09/27 10:19:30;;;;;;;2.80;1.00;;;12.80;99.90;;;;;;6275781;22;20020;-84
2022/09/27 10:22:15;;;;;;;3.67;1.30;;;11.40;99.90;;;;;;6247831;22;20146;-84
2022/09/27 10:25:00;;;;;;;4.85;1.30;;;11.90;99.90;;;;;;6277011;22;20020;-85
2022/09/27 10:27:27;;;;;;;1.60;0.80;;;11.30;99.90;;;;;;6248404;22;20027;-84
2022/09/27 10:29:58;;;;;;;2.78;1.13;;;12.40;99.90;;;;;;6249150;22;20321;-85
2022/09/27 10:32:31;;;;;;;3.28;1.10;;;11.20;99.90;;;;;;6249555;22;20019;-82
2022/09/27 10:35:29;;;;;;;2.72;1.00;;;11.20;99.90;;;;;;6248537;22;20107;-82
2022/09/27 10:38:27;;;;;;;2.75;1.02;;;11.10;99.90;;;;;;6275787;22;20452;-82
2022/09/27 10:40:55;;;;;;;3.25;1.20;;;11.10;99.90;;;;;;6249336;22;20012;-83
2022/09/27 10:43:24;;;;;;;3.20;1.13;;;11.20;99.90;;;;;;6275217;22;20088;-83
2022/09/27 10:46:11;;;;;;;4.03;1.13;;;11.40;99.90;;;;;;6249639;22;20091;-85
2022/09/27 10:48:38;;;;;;;3.47;1.27;;;11.60;99.90;;;;;;6248390;22;20015;-83
2022/09/27 10:51:24;;;;;;;7.28;2.78;;;13.10;99.90;;;;;;6276786;22;20008;-85
2022/09/27 10:54:11;;;;;;;13.90;6.20;;;12.40;99.90;;;;;;6250500;22;20089;-85
2022/09/27 10:56:36;;;;;;;3.78;1.38;;;13.00;99.90;;;;;;6247932;22;20073;-84
2022/09/27 10:59:17;;;;;;;1.70;0.93;;;12.90;99.90;;;;;;6276440;22;20016;-85
2022/09/27 11:01:44;;;;;;;2.35;1.00;;;13.50;99.90;;;;;;6249158;22;20086;-85
2022/09/27 11:04:30;;;;;;;1.33;0.93;;;14.00;99.90;;;;;;6226879;22;20024;-83
2022/09/27 11:07:19;;;;;;;3.30;1.10;;;12.90;99.90;;;;;;6214071;23;20048;-84
2022/09/27 11:09:49;;;;;;;3.78;1.08;;;13.20;99.90;;;;;;6213268;23;20071;-85
2022/09/27 11:12:19;;;;;;;2.05;0.93;;;14.00;99.90;;;;;;6215741;23;20012;-82
2022/09/27 11:14:57;;;;;;;3.05;1.25;;;13.70;99.90;;;;;;6213962;23;20016;-83
2022/09/27 11:18:02;;;;;;;5.97;1.70;;;13.50;99.90;;;;;;6212531;23;20443;-83
2022/09/27 11:26:22;;;;;;;3.20;1.38;;;13.40;99.90;;;;;;6207002;22;20023;-82
2022/09/27 11:29:21;;;;;;;4.72;1.60;;;13.30;99.90;;;;;;6250134;23;20044;-85
2022/09/27 11:32:18;;;;;;;4.00;1.38;;;13.30;99.90;;;;;;6217938;23;20150;-85
2022/09/27 11:35:12;;;;;;;7.40;2.75;;;13.20;99.90;;;;;;6218692;23;20051;-83
2022/09/27 11:38:05;;;;;;;7.80;2.50;;;13.20;99.90;;;;;;6175622;23;20012;-81
2022/09/27 11:41:10;;;;;;;10.02;3.30;;;13.40;99.90;;;;;;6245766;23;20043;-83
2022/09/27 11:43:35;;;;;;;5.80;2.03;;;13.30;99.90;;;;;;6218771;23;20016;-84
2022/09/27 11:46:30;;;;;;;7.10;2.20;;;13.40;99.90;;;;;;6244708;23;20340;-83
2022/09/27 11:49:11;;;;;;;3.83;1.38;;;13.00;99.90;;;;;;6218894;23;20027;-83
2022/09/27 11:51:49;;;;;;;2.13;1.00;;;12.80;99.90;;;;;;6218121;23;20016;-85
2022/09/27 11:54:38;;;;;;;4.40;1.50;;;12.40;99.90;;;;;;6218863;23;20019;-83
2022/09/27 11:57:34;;;;;;;4.30;1.00;;;12.10;99.90;;;;;;6219086;23;20016;-83
2022/09/27 12:00:27;;;;;;;2.53;1.00;;;11.90;99.90;;;;;;6217288;23;20016;-82
2022/09/27 12:03:16;;;;;;;2.00;0.93;;;11.80;99.90;;;;;;6245311;23;20039;-82
2022/09/27 12:06:11;;;;;;;3.17;1.10;;;11.60;99.90;;;;;;6217608;23;20016;-82
2022/09/27 12:08:47;;;;;;;4.55;1.40;;;11.70;99.90;;;;;;6245943;23;20047;-83
2022/09/27 12:11:13;;;;;;;3.50;1.15;;;11.80;99.90;;;;;;6218294;23;20090;-83
2022/09/27 12:13:48;;;;;;;6.45;1.88;;;12.10;99.90;;;;;;6217650;23;20380;-84
2022/09/27 12:16:16;;;;;;;5.30;1.95;;;12.00;99.90;;;;;;6218393;23;20310;-83
2022/09/27 12:18:43;;;;;;;5.32;1.42;;;12.00;99.90;;;;;;6247576;23;20016;-83
2022/09/27 12:21:11;;;;;;;8.43;2.40;;;12.00;99.90;;;;;;6245711;23;20019;-85
2022/09/27 12:23:48;;;;;;;11.95;3.40;;;11.70;99.90;;;;;;6220332;23;20459;-84
2022/09/27 12:26:21;;;;;;;3.55;0.95;;;11.70;99.90;;;;;;6246412;23;20377;-84
2022/09/27 12:29:00;;;;;;;4.50;1.10;;;11.80;99.90;;;;;;6219566;23;20023;-84
2022/09/27 12:31:34;;;;;;;7.80;1.90;;;11.90;99.90;;;;;;6246665;23;20027;-84
2022/09/27 12:34:17;;;;;;;12.75;4.05;;;12.00;99.90;;;;;;6246500;23;20016;-83
2022/09/27 12:36:52;;;;;;;14.32;4.63;;;12.00;99.90;;;;;;6217316;23;20016;-83
2022/09/27 12:39:26;;;;;;;3.20;1.15;;;12.30;99.90;;;;;;6219069;23;20490;-83
2022/09/27 12:42:00;;;;;;;2.40;0.82;;;12.60;99.90;;;;;;6218077;23;20496;-83
2022/09/27 12:44:29;;;;;;;4.55;1.50;;;14.10;99.90;;;;;;6246581;23;20012;-85
2022/09/27 12:47:18;;;;;;;2.35;0.95;;;13.20;99.90;;;;;;6218825;23;20344;-85
2022/09/27 12:50:12;;;;;;;2.78;1.00;;;13.30;99.90;;;;;;6244081;23;20055;-84
2022/09/27 12:52:42;;;;;;;5.85;1.67;;;13.50;99.90;;;;;;6219883;23;20058;-84
2022/09/27 12:55:29;;;;;;;6.97;2.00;;;13.30;99.90;;;;;;6218690;23;20016;-85
2022/09/27 12:58:00;;;;;;;11.80;3.42;;;13.30;99.90;;;;;;6219514;23;20047;-84
2022/09/27 13:00:39;;;;;;;3.55;1.05;;;13.30;99.90;;;;;;6246255;23;20016;-84
2022/09/27 13:03:13;;;;;;;1.60;0.93;;;13.30;99.90;;;;;;6245700;23;20095;-84
2022/09/27 13:06:11;;;;;;;1.55;0.73;;;13.20;99.90;;;;;;6219832;23;20023;-84
2022/09/27 13:08:53;;;;;;;2.17;0.98;;;12.90;99.90;;;;;;6246669;23;20091;-84
2022/09/27 13:11:23;;;;;;;3.42;1.13;;;12.90;99.90;;;;;;6219477;23;20436;-84
2022/09/27 13:13:58;;;;;;;5.97;1.52;;;13.60;99.90;;;;;;6245436;23;20440;-84
2022/09/27 13:16:24;;;;;;;2.55;1.02;;;13.80;99.90;;;;;;6245122;23;20017;-83
2022/09/27 13:18:54;;;;;;;3.65;0.93;;;13.30;99.90;;;;;;6219255;23;20154;-84
2022/09/27 13:21:46;;;;;;;4.05;0.95;;;14.40;99.90;;;;;;6246624;23;20012;-86
2022/09/27 13:24:39;;;;;;;4.55;1.20;;;13.20;99.90;;;;;;6244763;23;20020;-86
2022/09/27 13:27:34;;;;;;;3.45;1.05;;;13.00;99.90;;;;;;6219285;23;20071;-85
2022/09/27 13:30:15;;;;;;;5.05;1.27;;;13.00;99.90;;;;;;6218489;23;20012;-85
2022/09/27 13:33:09;;;;;;;4.93;1.60;;;12.80;99.90;;;;;;6246567;23;20035;-85
2022/09/27 13:35:35;;;;;;;;;;;12.70;99.90;;;;;;6220018;23;20019;-85
2022/09/27 13:38:02;;;;;;;5.35;1.10;;;13.50;99.90;;;;;;6218586;23;19916;-84
2022/09/27 13:40:32;;;;;;;3.88;1.20;;;13.00;99.90;;;;;;6219004;23;20015;-85
2022/09/27 13:43:09;;;;;;;3.13;1.20;;;13.10;99.90;;;;;;6246357;23;20048;-85
2022/09/27 13:45:53;;;;;;;3.78;1.05;;;14.40;99.90;;;;;;6245480;23;20020;-86
2022/09/27 13:48:38;;;;;;;2.08;0.90;;;13.10;99.90;;;;;;6219522;23;20018;-85
2022/09/27 13:51:34;;;;;;;5.68;1.27;;;12.90;99.90;;;;;;6245540;23;20115;-85
2022/09/27 13:54:06;;;;;;;3.92;1.10;;;12.80;99.90;;;;;;6212948;23;20020;-85
2022/09/27 13:56:45;;;;;;;1.77;0.93;;;13.30;99.90;;;;;;6246313;23;20016;-85
2022/09/27 14:03:25;;;;;;;3.80;1.20;;;12.30;99.90;;;;;;6245340;23;20438;-86
2022/09/27 14:06:05;;;;;;;4.03;1.10;;;12.30;99.90;;;;;;6244916;23;20027;-85
2022/09/27 14:08:55;;;;;;;2.00;0.80;;;11.60;99.90;;;;;;6218881;23;20043;-85
2022/09/27 14:11:53;;;;;;;1.67;0.90;;;12.10;99.90;;;;;;6245304;23;20039;-86
2022/09/27 14:14:23;;;;;;;3.33;1.10;;;11.60;99.90;;;;;;6243962;23;20063;-86
2022/09/27 14:16:49;;;;;;;5.22;1.35;;;13.20;99.90;;;;;;6218527;23;20012;-86
2022/09/27 14:19:21;;;;;;;2.50;1.15;;;12.20;99.90;;;;;;6217772;23;20467;-86
2022/09/27 14:21:47;;;;;;;3.55;0.98;;;12.20;99.90;;;;;;6218969;23;20344;-85
2022/09/27 14:24:30;;;;;;;3.45;1.00;;;12.10;99.90;;;;;;6243525;23;20111;-85
2022/09/27 14:27:14;;;;;;;4.13;1.40;;;12.00;99.90;;;;;;6244491;23;20016;-86
2022/09/27 14:29:52;;;;;;;2.72;1.08;;;11.90;99.90;;;;;;6220237;23;20012;-85
2022/09/27 14:32:20;;;;;;;2.25;1.00;;;11.90;99.90;;;;;;6245676;23;20031;-85
2022/09/27 14:35:01;;;;;;;3.67;1.00;;;11.90;99.90;;;;;;6217179;23;20012;-85
2022/09/27 14:37:28;;;;;;;2.72;1.08;;;11.80;99.90;;;;;;6217612;23;20781;-85
2022/09/27 14:40:07;;;;;;;0.98;0.68;;;12.50;99.90;;;;;;6217873;23;20012;-85
2022/09/27 14:42:36;;;;;;;1.73;0.93;;;11.80;99.90;;;;;;6244958;23;20083;-86
2022/09/27 14:45:20;;;;;;;2.00;0.80;;;11.70;99.90;;;;;;6271138;22;20044;-86
2022/09/27 14:47:48;;;;;;;2.65;0.98;;;12.80;99.90;;;;;;6248891;22;20012;-86
2022/09/27 14:50:28;;;;;;;3.28;1.20;;;11.80;99.90;;;;;;6276003;22;20019;-85
2022/09/27 14:52:58;;;;;;;4.07;1.02;;;12.10;99.90;;;;;;6248634;22;20470;-85
2022/09/27 14:55:27;;;;;;;6.35;1.20;;;11.70;99.90;;;;;;6247021;22;20016;-84
2022/09/27 14:57:58;;;;;;;3.03;1.17;;;11.70;99.90;;;;;;6275969;22;20012;-84
2022/09/27 15:00:31;;;;;;;2.58;1.02;;;12.10;99.90;;;;;;6248276;22;20494;-86
2022/09/27 15:03:01;;;;;;;2.10;0.73;;;11.60;99.90;;;;;;6247530;22;20340;-85
2022/09/27 15:08:25;;;;;;;4.35;1.40;;;11.60;99.90;;;;;;6276683;22;20126;-83
2022/09/27 15:10:52;;;;;;;2.58;1.10;;;11.20;99.90;;;;;;6276491;22;20019;-86
2022/09/27 15:13:22;;;;;;;8.13;2.55;;;12.70;99.90;;;;;;6247746;22;20027;-86
2022/09/27 15:15:49;;;;;;;4.60;1.50;;;12.70;99.90;;;;;;6242044;22;20094;-87
2022/09/27 15:18:43;;;;;;;4.63;1.67;;;12.60;99.90;;;;;;6247655;22;20493;-84
2022/09/27 15:21:12;;;;;;;5.00;2.10;;;10.80;99.90;;;;;;6275450;22;20094;-84